Airfield :
LOGIN :

Register | Disclaimer

   EN    FR    IT 

 










Legend :    VFR   Marginal VFR   IFR   Intensive IFR   Very Intensive IFR
Visi :
Ceiling :
>= 8 km
>= 3000ft
5 to 8 km
1000 to 3000 ft
1500m to 5 km
500 to 1000 ft
800 to 1500m
200 to 500 ft
< 800m
< 200 ft
Symbols :   Thunderstorms  Fog  Heavy snow  Heavy precipitations  Wind > 20 kt
SIGMETs :     Misc.  Thunderstorms  Icing  Turbulence  Mountain Waves  Volcanic Ashes






- Airport Elevation : 465 ft


ENFB - Statfjord B Platform

CURRENT METAR :
  • 032120Z AUTO 21024KT 9999NDV SCT016/// BKN042/// 12/10 Q1009 W///S4

EXPIRED METARs :
  • 032050Z AUTO 21024KT 9999NDV SCT015/// BKN045/// 12/10 Q1009 W///S4
  • 032020Z AUTO 21026KT 9999NDV FEW014/// BKN042/// 12/10 Q1009 W///S4
  • 031950Z AUTO 21025KT 9999NDV FEW014/// BKN048/// 12/10 Q1009 W///S4
  • 031920Z AUTO 21028KT 9999NDV FEW013/// BKN045/// 12/10 Q1009 W///S4
  • 031850Z AUTO 22025KT 9999NDV -SHRA BKN013/// 12/10 Q1009 W///S4

TAF N/A



MET'MAP, your aeronautical weather chart ! - Copyright ORBIFLY December 2007 - Disclaimer

ORBIFLY MET'MAP TEAM :

Programming & Development : Alexandra Zaïnal
Original concept : Baudouin d'Aumeries
Technical & hardware support : Manuel Goepfert
Assistance : Marc-Olivier Méhu




SOURCES & CREDITS :

   NOAA